Armada Township, Michigan
Current Conditions -  °F | °C
As of 2:58 AM on Thursday 23 Oct 2014 (Local Time) from KMTC Reporting Station
Clear Clear  
Wind Chill: 32°   Ceiling: Unl
Heat Index: 37°   Visibility: 10mi
Dew Point: 37°   Wind: 7mph
Humidity: 99%   Direction: 330°NNW
Pressure: 30.24"   Gusts: NA
Location:  42.8463°N, 82.9201°W
Report Text: KMTC 230658Z AUTO 33006KT 10SM CLR 03/03 A3024 RMK AO2 SLP247 T00280026 $
Loading
Personal Weather Stations






























Interactive Weather Map
Tropical Storm Tracking
New forecast layout! Learn more

10-Day Weather Forecast

Advertisements
Track Severe Weather on mobile